Hopkinton, New Hampshire
Current Conditions -  °F | °C
As of 11:51 PM on Tuesday 25 Nov 2014 (Local Time) from KCON Reporting Station
Clear Clear  
Wind Chill: 32°   Ceiling: Unl
Heat Index: 32°   Visibility: 10mi
Dew Point: 27°   Wind: 0mph
Humidity: 82%   Direction: NA
Pressure: 30.09"   Gusts: NA
Location:  43.2205°N, 71.6996°W
Report Text: KCON 260451Z AUTO 00000KT 10SM CLR 00/M03 A3009 RMK AO2 SLP191 T00001028 401720000
Loading
Personal Weather Stations






























Interactive Weather Map New forecast layout! Learn more

10-Day Weather Forecast

Advertisements
Track Severe Weather on mobile